sensor_id;sensor_type;location;lat;lon;timestamp;pressure;altitude;pressure_sealevel;temperature;humidity
48606;BME280;8482;54.396;18.590;2022-10-24T00:02:08;101308.38;;;11.47;83.57
48606;BME280;8482;54.396;18.590;2022-10-24T00:04:38;101313.94;;;11.44;83.53
48606;BME280;8482;54.396;18.590;2022-10-24T00:07:06;101308.09;;;11.39;83.88
48606;BME280;8482;54.396;18.590;2022-10-24T00:09:33;101314.59;;;11.34;83.90
48606;BME280;8482;54.396;18.590;2022-10-24T00:12:00;101315.69;;;11.32;84.00
48606;BME280;8482;54.396;18.590;2022-10-24T00:14:28;101317.59;;;11.30;83.87
48606;BME280;8482;54.396;18.590;2022-10-24T00:16:54;101302.13;;;11.24;84.24
48606;BME280;8482;54.396;18.590;2022-10-24T00:19:20;101303.81;;;11.25;84.01
48606;BME280;8482;54.396;18.590;2022-10-24T00:21:47;101307.53;;;11.22;84.25
48606;BME280;8482;54.396;18.590;2022-10-24T00:24:13;101292.88;;;11.16;83.88
48606;BME280;8482;54.396;18.590;2022-10-24T00:26:40;101295.66;;;11.15;84.43
48606;BME280;8482;54.396;18.590;2022-10-24T00:29:07;101296.63;;;11.14;84.44
48606;BME280;8482;54.396;18.590;2022-10-24T00:31:33;101295.75;;;11.13;84.54
48606;BME280;8482;54.396;18.590;2022-10-24T00:33:59;101290.69;;;11.10;84.67
48606;BME280;8482;54.396;18.590;2022-10-24T00:36:27;101287.19;;;11.10;84.51
48606;BME280;8482;54.396;18.590;2022-10-24T00:38:53;101280.28;;;11.07;85.07
48606;BME280;8482;54.396;18.590;2022-10-24T00:41:37;101279.44;;;11.07;84.62
48606;BME280;8482;54.396;18.590;2022-10-24T00:44:27;101276.16;;;11.03;84.70
48606;BME280;8482;54.396;18.590;2022-10-24T00:47:02;101278.81;;;11.03;85.12
48606;BME280;8482;54.396;18.590;2022-10-24T00:50:13;101282.41;;;11.02;84.84
48606;BME280;8482;54.396;18.590;2022-10-24T00:52:46;101270.34;;;10.98;85.29
48606;BME280;8482;54.396;18.590;2022-10-24T00:55:14;101264.06;;;10.99;85.45
48606;BME280;8482;54.396;18.590;2022-10-24T00:57:48;101249.94;;;10.98;85.50
48606;BME280;8482;54.396;18.590;2022-10-24T01:00:29;101241.97;;;10.98;85.60
48606;BME280;8482;54.396;18.590;2022-10-24T01:02:56;101254.41;;;10.98;85.65
48606;BME280;8482;54.396;18.590;2022-10-24T01:05:26;101252.72;;;10.97;85.55
48606;BME280;8482;54.396;18.590;2022-10-24T01:13:46;101249.22;;;10.96;86.28
48606;BME280;8482;54.396;18.590;2022-10-24T01:22:08;101228.72;;;10.98;86.31
48606;BME280;8482;54.396;18.590;2022-10-24T01:25:16;101229.44;;;11.00;87.25
48606;BME280;8482;54.396;18.590;2022-10-24T01:28:10;101222.97;;;11.04;87.81
48606;BME280;8482;54.396;18.590;2022-10-24T01:30:50;101222.84;;;11.06;88.18
48606;BME280;8482;54.396;18.590;2022-10-24T01:33:28;101215.72;;;11.07;88.01
48606;BME280;8482;54.396;18.590;2022-10-24T01:36:13;101223.47;;;11.10;88.25
48606;BME280;8482;54.396;18.590;2022-10-24T01:38:53;101222.50;;;11.11;88.45
48606;BME280;8482;54.396;18.590;2022-10-24T01:41:25;101223.09;;;11.14;89.03
48606;BME280;8482;54.396;18.590;2022-10-24T01:44:05;101223.75;;;11.18;89.14
48606;BME280;8482;54.396;18.590;2022-10-24T01:46:39;101207.69;;;11.19;89.21
48606;BME280;8482;54.396;18.590;2022-10-24T01:49:23;101215.31;;;11.24;89.71
48606;BME280;8482;54.396;18.590;2022-10-24T01:51:56;101211.47;;;11.28;89.83
48606;BME280;8482;54.396;18.590;2022-10-24T01:54:25;101208.56;;;11.31;90.14
48606;BME280;8482;54.396;18.590;2022-10-24T01:56:51;101189.88;;;11.33;90.00
48606;BME280;8482;54.396;18.590;2022-10-24T02:04:57;101189.78;;;11.46;90.69
48606;BME280;8482;54.396;18.590;2022-10-24T02:07:28;101171.81;;;11.49;90.79
48606;BME280;8482;54.396;18.590;2022-10-24T02:10:10;101160.84;;;11.54;90.77
48606;BME280;8482;54.396;18.590;2022-10-24T02:12:46;101161.44;;;11.58;90.69
48606;BME280;8482;54.396;18.590;2022-10-24T02:15:29;101160.34;;;11.60;90.86
48606;BME280;8482;54.396;18.590;2022-10-24T02:17:57;101161.81;;;11.64;90.98
48606;BME280;8482;54.396;18.590;2022-10-24T02:23:28;101150.09;;;11.67;91.31
48606;BME280;8482;54.396;18.590;2022-10-24T02:26:00;101150.59;;;11.72;90.97
48606;BME280;8482;54.396;18.590;2022-10-24T02:28:35;101133.81;;;11.72;90.81
48606;BME280;8482;54.396;18.590;2022-10-24T02:31:14;101126.81;;;11.71;90.91
48606;BME280;8482;54.396;18.590;2022-10-24T02:33:44;101145.88;;;11.76;90.96
48606;BME280;8482;54.396;18.590;2022-10-24T02:36:16;101144.94;;;11.77;90.64
48606;BME280;8482;54.396;18.590;2022-10-24T02:38:46;101148.56;;;11.76;90.49
48606;BME280;8482;54.396;18.590;2022-10-24T02:41:29;101147.59;;;11.77;90.53
48606;BME280;8482;54.396;18.590;2022-10-24T02:43:59;101152.78;;;11.78;90.70
48606;BME280;8482;54.396;18.590;2022-10-24T02:46:26;101152.06;;;11.76;90.18
48606;BME280;8482;54.396;18.590;2022-10-24T02:48:58;101142.28;;;11.77;90.00
48606;BME280;8482;54.396;18.590;2022-10-24T02:51:30;101143.84;;;11.79;89.88
48606;BME280;8482;54.396;18.590;2022-10-24T02:54:00;101135.03;;;11.79;89.76
48606;BME280;8482;54.396;18.590;2022-10-24T02:56:27;101141.31;;;11.78;89.96
48606;BME280;8482;54.396;18.590;2022-10-24T02:58:54;101154.59;;;11.78;89.59
48606;BME280;8482;54.396;18.590;2022-10-24T03:01:20;101141.31;;;11.78;89.81
48606;BME280;8482;54.396;18.590;2022-10-24T03:03:46;101139.63;;;11.77;89.29
48606;BME280;8482;54.396;18.590;2022-10-24T03:06:12;101137.91;;;11.76;89.63
48606;BME280;8482;54.396;18.590;2022-10-24T03:08:37;101136.22;;;11.75;89.66
48606;BME280;8482;54.396;18.590;2022-10-24T03:11:05;101134.66;;;11.72;89.66
48606;BME280;8482;54.396;18.590;2022-10-24T03:13:31;101138.88;;;11.75;89.52
48606;BME280;8482;54.396;18.590;2022-10-24T03:15:57;101138.78;;;11.76;89.41
48606;BME280;8482;54.396;18.590;2022-10-24T03:18:23;101127.53;;;11.73;89.46
48606;BME280;8482;54.396;18.590;2022-10-24T03:20:49;101132.59;;;11.76;89.49
48606;BME280;8482;54.396;18.590;2022-10-24T03:23:15;101128.38;;;11.73;89.78
48606;BME280;8482;54.396;18.590;2022-10-24T03:25:41;101131.88;;;11.74;89.84
48606;BME280;8482;54.396;18.590;2022-10-24T03:28:07;101113.28;;;11.74;89.45
48606;BME280;8482;54.396;18.590;2022-10-24T03:30:33;101127.53;;;11.73;89.90
48606;BME280;8482;54.396;18.590;2022-10-24T03:32:59;101115.94;;;11.74;89.63
48606;BME280;8482;54.396;18.590;2022-10-24T03:35:25;101111.56;;;11.73;89.56
48606;BME280;8482;54.396;18.590;2022-10-24T03:37:50;101106.53;;;11.70;89.86
48606;BME280;8482;54.396;18.590;2022-10-24T03:40:16;101100.47;;;11.68;89.92
48606;BME280;8482;54.396;18.590;2022-10-24T03:42:42;101110.00;;;11.70;90.05
48606;BME280;8482;54.396;18.590;2022-10-24T03:45:08;101104.81;;;11.69;89.87
48606;BME280;8482;54.396;18.590;2022-10-24T03:47:35;101108.22;;;11.71;89.77
48606;BME280;8482;54.396;18.590;2022-10-24T03:50:01;101089.84;;;11.68;89.95
48606;BME280;8482;54.396;18.590;2022-10-24T03:52:27;101089.63;;;11.71;89.56
48606;BME280;8482;54.396;18.590;2022-10-24T03:54:53;101084.53;;;11.68;89.31
48606;BME280;8482;54.396;18.590;2022-10-24T03:57:19;101086.22;;;11.69;89.65
48606;BME280;8482;54.396;18.590;2022-10-24T03:59:44;101074.97;;;11.65;89.19
48606;BME280;8482;54.396;18.590;2022-10-24T04:02:10;101073.03;;;11.67;89.51
48606;BME280;8482;54.396;18.590;2022-10-24T04:04:38;101074.00;;;11.66;89.88
48606;BME280;8482;54.396;18.590;2022-10-24T04:07:03;101088.25;;;11.65;89.49
48606;BME280;8482;54.396;18.590;2022-10-24T04:09:30;101095.41;;;11.64;89.57
48606;BME280;8482;54.396;18.590;2022-10-24T04:11:56;101096.34;;;11.63;89.67
48606;BME280;8482;54.396;18.590;2022-10-24T04:14:22;101101.53;;;11.65;89.40
48606;BME280;8482;54.396;18.590;2022-10-24T04:16:48;101103.38;;;11.64;89.46
48606;BME280;8482;54.396;18.590;2022-10-24T04:19:15;101099.97;;;11.62;89.46
48606;BME280;8482;54.396;18.590;2022-10-24T04:21:43;101099.88;;;11.64;89.62
48606;BME280;8482;54.396;18.590;2022-10-24T04:24:10;101092.00;;;11.62;89.78
48606;BME280;8482;54.396;18.590;2022-10-24T04:26:36;101097.22;;;11.64;89.61
48606;BME280;8482;54.396;18.590;2022-10-24T04:29:02;101084.78;;;11.64;89.79
48606;BME280;8482;54.396;18.590;2022-10-24T04:31:28;101074.28;;;11.63;89.56
48606;BME280;8482;54.396;18.590;2022-10-24T04:33:54;101074.28;;;11.63;89.70
48606;BME280;8482;54.396;18.590;2022-10-24T04:36:20;101077.75;;;11.63;89.99
48606;BME280;8482;54.396;18.590;2022-10-24T04:38:46;101089.13;;;11.65;89.95
48606;BME280;8482;54.396;18.590;2022-10-24T04:41:12;101081.16;;;11.65;90.01
48606;BME280;8482;54.396;18.590;2022-10-24T04:43:39;101081.16;;;11.65;89.98
48606;BME280;8482;54.396;18.590;2022-10-24T04:46:06;101088.38;;;11.63;90.11
48606;BME280;8482;54.396;18.590;2022-10-24T04:48:31;101086.69;;;11.62;89.93
48606;BME280;8482;54.396;18.590;2022-10-24T04:50:57;101077.75;;;11.63;89.80
48606;BME280;8482;54.396;18.590;2022-10-24T04:53:23;101074.28;;;11.63;89.91
48606;BME280;8482;54.396;18.590;2022-10-24T04:55:49;101067.13;;;11.63;89.72
48606;BME280;8482;54.396;18.590;2022-10-24T04:58:16;101063.75;;;11.61;90.12
48606;BME280;8482;54.396;18.590;2022-10-24T05:00:42;101072.44;;;11.63;90.02
48606;BME280;8482;54.396;18.590;2022-10-24T05:03:12;101051.41;;;11.60;89.82
48606;BME280;8482;54.396;18.590;2022-10-24T05:05:38;101070.66;;;11.64;90.27
48606;BME280;8482;54.396;18.590;2022-10-24T05:08:04;101067.13;;;11.63;90.00
48606;BME280;8482;54.396;18.590;2022-10-24T05:10:30;101065.44;;;11.62;89.94
48606;BME280;8482;54.396;18.590;2022-10-24T05:12:56;101065.34;;;11.64;90.18
48606;BME280;8482;54.396;18.590;2022-10-24T05:15:22;101067.13;;;11.63;89.87
48606;BME280;8482;54.396;18.590;2022-10-24T05:17:47;101080.41;;;11.63;90.35
48606;BME280;8482;54.396;18.590;2022-10-24T05:20:13;101078.97;;;11.59;90.27
48606;BME280;8482;54.396;18.590;2022-10-24T05:22:39;101077.16;;;11.60;90.39
48606;BME280;8482;54.396;18.590;2022-10-24T05:25:06;101078.72;;;11.62;90.19
48606;BME280;8482;54.396;18.590;2022-10-24T05:27:32;101085.72;;;11.63;90.15
48606;BME280;8482;54.396;18.590;2022-10-24T05:29:58;101083.94;;;11.64;90.44
48606;BME280;8482;54.396;18.590;2022-10-24T05:32:24;101091.03;;;11.63;90.26
48606;BME280;8482;54.396;18.590;2022-10-24T05:34:50;101090.91;;;11.65;90.43
48606;BME280;8482;54.396;18.590;2022-10-24T05:37:17;101093.56;;;11.65;90.43
48606;BME280;8482;54.396;18.590;2022-10-24T05:39:45;101087.44;;;11.64;89.96
48606;BME280;8482;54.396;18.590;2022-10-24T05:42:11;101090.09;;;11.64;90.33
48606;BME280;8482;54.396;18.590;2022-10-24T05:44:37;101089.94;;;11.66;90.46
48606;BME280;8482;54.396;18.590;2022-10-24T05:47:03;101091.66;;;11.67;90.71
48606;BME280;8482;54.396;18.590;2022-10-24T05:49:30;101086.31;;;11.67;90.45
48606;BME280;8482;54.396;18.590;2022-10-24T05:51:56;101084.63;;;11.66;90.23
48606;BME280;8482;54.396;18.590;2022-10-24T05:54:22;101073.78;;;11.69;90.10
48606;BME280;8482;54.396;18.590;2022-10-24T05:56:47;101087.91;;;11.70;90.10
48606;BME280;8482;54.396;18.590;2022-10-24T05:59:13;101078.13;;;11.70;90.30
48606;BME280;8482;54.396;18.590;2022-10-24T06:01:40;101067.63;;;11.69;90.08
48606;BME280;8482;54.396;18.590;2022-10-24T06:04:06;101063.75;;;11.73;90.25
48606;BME280;8482;54.396;18.590;2022-10-24T06:06:37;101052.28;;;11.72;90.22
48606;BME280;8482;54.396;18.590;2022-10-24T06:09:03;101059.28;;;11.73;90.47
48606;BME280;8482;54.396;18.590;2022-10-24T06:11:29;101058.69;;;11.70;90.51
48606;BME280;8482;54.396;18.590;2022-10-24T06:13:55;101059.28;;;11.73;90.28
48606;BME280;8482;54.396;18.590;2022-10-24T06:16:21;101058.41;;;11.73;90.03
48606;BME280;8482;54.396;18.590;2022-10-24T06:18:47;101059.28;;;11.73;90.20
48606;BME280;8482;54.396;18.590;2022-10-24T06:21:12;101059.16;;;11.75;90.25
48606;BME280;8482;54.396;18.590;2022-10-24T06:23:40;101066.88;;;11.78;90.09
48606;BME280;8482;54.396;18.590;2022-10-24T06:26:08;101057.94;;;11.79;90.28
48606;BME280;8482;54.396;18.590;2022-10-24T06:28:36;101060.63;;;11.79;90.21
48606;BME280;8482;54.396;18.590;2022-10-24T06:31:03;101058.78;;;11.79;90.82
48606;BME280;8482;54.396;18.590;2022-10-24T06:33:29;101049.84;;;11.80;90.67
48606;BME280;8482;54.396;18.590;2022-10-24T06:36:00;101052.41;;;11.82;90.48
48606;BME280;8482;54.396;18.590;2022-10-24T06:38:26;101037.41;;;11.81;90.18
48606;BME280;8482;54.396;18.590;2022-10-24T06:40:53;101042.50;;;11.84;90.27
48606;BME280;8482;54.396;18.590;2022-10-24T06:43:19;101033.66;;;11.84;90.55
48606;BME280;8482;54.396;18.590;2022-10-24T06:45:45;101032.56;;;11.86;90.20
48606;BME280;8482;54.396;18.590;2022-10-24T06:48:11;101034.25;;;11.87;90.73
48606;BME280;8482;54.396;18.590;2022-10-24T06:50:37;101027.88;;;11.90;90.54
48606;BME280;8482;54.396;18.590;2022-10-24T06:53:07;101028.56;;;11.92;90.04
48606;BME280;8482;54.396;18.590;2022-10-24T06:55:34;101029.44;;;11.92;90.37
48606;BME280;8482;54.396;18.590;2022-10-24T06:58:02;101024.94;;;11.93;90.20
48606;BME280;8482;54.396;18.590;2022-10-24T07:00:33;101030.38;;;11.91;90.48
48606;BME280;8482;54.396;18.590;2022-10-24T07:02:59;101029.28;;;11.94;90.06
48606;BME280;8482;54.396;18.590;2022-10-24T07:05:25;101022.41;;;11.91;90.20
48606;BME280;8482;54.396;18.590;2022-10-24T07:07:51;101023.16;;;11.93;90.52
48606;BME280;8482;54.396;18.590;2022-10-24T07:10:17;101028.22;;;11.96;90.36
48606;BME280;8482;54.396;18.590;2022-10-24T07:12:43;101030.00;;;11.96;90.48
48606;BME280;8482;54.396;18.590;2022-10-24T07:15:10;101037.78;;;11.99;90.61
48606;BME280;8482;54.396;18.590;2022-10-24T07:17:42;101043.94;;;12.00;90.31
48606;BME280;8482;54.396;18.590;2022-10-24T07:20:09;101045.63;;;12.01;90.36
48606;BME280;8482;54.396;18.590;2022-10-24T07:22:36;101047.31;;;12.02;90.54
48606;BME280;8482;54.396;18.590;2022-10-24T07:25:03;101055.44;;;12.00;90.56
48606;BME280;8482;54.396;18.590;2022-10-24T07:27:30;101057.00;;;12.03;90.34
48606;BME280;8482;54.396;18.590;2022-10-24T07:29:56;101061.19;;;12.05;90.22
48606;BME280;8482;54.396;18.590;2022-10-24T07:32:22;101054.19;;;12.04;90.62
48606;BME280;8482;54.396;18.590;2022-10-24T07:34:48;101061.34;;;12.04;90.66
48606;BME280;8482;54.396;18.590;2022-10-24T07:37:15;101063.75;;;12.07;90.22
48606;BME280;8482;54.396;18.590;2022-10-24T07:39:42;101072.47;;;12.09;90.70
48606;BME280;8482;54.396;18.590;2022-10-24T07:42:11;101068.84;;;12.10;90.77
48606;BME280;8482;54.396;18.590;2022-10-24T07:44:37;101079.19;;;12.13;90.64
48606;BME280;8482;54.396;18.590;2022-10-24T07:47:03;101064.34;;;12.10;90.41
48606;BME280;8482;54.396;18.590;2022-10-24T07:49:35;101085.25;;;12.15;90.79
48606;BME280;8482;54.396;18.590;2022-10-24T07:52:01;101085.16;;;12.17;90.31
48606;BME280;8482;54.396;18.590;2022-10-24T07:54:26;101083.91;;;12.21;90.93
48606;BME280;8482;54.396;18.590;2022-10-24T07:56:54;101076.06;;;12.19;90.93
48606;BME280;8482;54.396;18.590;2022-10-24T07:59:19;101079.31;;;12.23;90.30
48606;BME280;8482;54.396;18.590;2022-10-24T08:01:45;101069.78;;;12.20;90.23
48606;BME280;8482;54.396;18.590;2022-10-24T08:04:11;101070.50;;;12.22;90.92
48606;BME280;8482;54.396;18.590;2022-10-24T08:06:39;101059.00;;;12.22;90.38
48606;BME280;8482;54.396;18.590;2022-10-24T08:09:09;101054.28;;;12.25;90.79
48606;BME280;8482;54.396;18.590;2022-10-24T08:11:35;101050.66;;;12.26;90.89
48606;BME280;8482;54.396;18.590;2022-10-24T08:14:01;101037.25;;;12.28;90.87
48606;BME280;8482;54.396;18.590;2022-10-24T08:16:27;101034.44;;;12.30;90.85
48606;BME280;8482;54.396;18.590;2022-10-24T08:18:56;101037.69;;;12.33;90.62
48606;BME280;8482;54.396;18.590;2022-10-24T08:21:24;101033.34;;;12.32;90.93
48606;BME280;8482;54.396;18.590;2022-10-24T08:23:53;101038.31;;;12.37;90.66
48606;BME280;8482;54.396;18.590;2022-10-24T08:26:22;101051.59;;;12.37;90.50
48606;BME280;8482;54.396;18.590;2022-10-24T08:28:49;101055.94;;;12.38;90.94
48606;BME280;8482;54.396;18.590;2022-10-24T08:31:19;101058.47;;;12.39;90.80
48606;BME280;8482;54.396;18.590;2022-10-24T08:33:45;101060.03;;;12.42;90.72
48606;BME280;8482;54.396;18.590;2022-10-24T08:36:26;101052.78;;;12.44;90.91
48606;BME280;8482;54.396;18.590;2022-10-24T08:38:53;101052.63;;;12.46;90.59
48606;BME280;8482;54.396;18.590;2022-10-24T08:41:43;101038.50;;;12.45;90.78
48606;BME280;8482;54.396;18.590;2022-10-24T08:44:33;101035.59;;;12.48;90.55
48606;BME280;8482;54.396;18.590;2022-10-24T08:47:32;101044.16;;;12.52;90.70
48606;BME280;8482;54.396;18.590;2022-10-24T08:55:49;101037.50;;;12.57;90.42
48606;BME280;8482;54.396;18.590;2022-10-24T08:58:25;101030.34;;;12.58;90.36
48606;BME280;8482;54.396;18.590;2022-10-24T09:00:57;101031.66;;;12.64;90.36
48606;BME280;8482;54.396;18.590;2022-10-24T09:03:39;101027.31;;;12.63;90.50
48606;BME280;8482;54.396;18.590;2022-10-24T09:06:19;101035.75;;;12.68;90.36
48606;BME280;8482;54.396;18.590;2022-10-24T09:14:35;101045.03;;;12.73;90.50
48606;BME280;8482;54.396;18.590;2022-10-24T09:17:24;101044.19;;;12.73;90.02
48606;BME280;8482;54.396;18.590;2022-10-24T09:22:27;101054.06;;;12.82;90.32
48606;BME280;8482;54.396;18.590;2022-10-24T09:25:06;101055.75;;;12.83;90.08
48606;BME280;8482;54.396;18.590;2022-10-24T09:27:36;101053.81;;;12.85;90.07
48606;BME280;8482;54.396;18.590;2022-10-24T09:30:05;101058.19;;;12.86;89.89
48606;BME280;8482;54.396;18.590;2022-10-24T09:32:35;101053.69;;;12.87;89.98
48606;BME280;8482;54.396;18.590;2022-10-24T09:35:30;101048.25;;;12.88;89.96
48606;BME280;8482;54.396;18.590;2022-10-24T09:40:55;101054.25;;;12.91;89.97
48606;BME280;8482;54.396;18.590;2022-10-24T09:43:45;101070.72;;;12.96;89.81
48606;BME280;8482;54.396;18.590;2022-10-24T09:46:21;101083.06;;;12.97;89.62
48606;BME280;8482;54.396;18.590;2022-10-24T09:49:20;101075.88;;;12.97;89.23
48606;BME280;8482;54.396;18.590;2022-10-24T09:52:43;101077.59;;;12.98;88.99
48606;BME280;8482;54.396;18.590;2022-10-24T09:55:22;101069.47;;;13.00;89.03
48606;BME280;8482;54.396;18.590;2022-10-24T09:57:58;101072.00;;;13.01;89.15
48606;BME280;8482;54.396;18.590;2022-10-24T10:00:35;101069.22;;;13.03;89.23
48606;BME280;8482;54.396;18.590;2022-10-24T10:03:26;101059.28;;;13.05;88.90
48606;BME280;8482;54.396;18.590;2022-10-24T10:06:19;101067.97;;;13.07;89.10
48606;BME280;8482;54.396;18.590;2022-10-24T10:08:53;101068.69;;;13.09;89.20
48606;BME280;8482;54.396;18.590;2022-10-24T10:13:52;101066.63;;;13.13;89.25
48606;BME280;8482;54.396;18.590;2022-10-24T10:16:30;101061.91;;;13.16;89.42
48606;BME280;8482;54.396;18.590;2022-10-24T10:19:18;101063.56;;;13.17;89.20
48606;BME280;8482;54.396;18.590;2022-10-24T10:21:58;101055.31;;;13.21;89.45
48606;BME280;8482;54.396;18.590;2022-10-24T10:24:37;101043.69;;;13.22;89.43
48606;BME280;8482;54.396;18.590;2022-10-24T10:36:18;101017.94;;;13.32;89.67
48606;BME280;8482;54.396;18.590;2022-10-24T10:39:12;101024.44;;;13.39;89.45
48606;BME280;8482;54.396;18.590;2022-10-24T10:41:52;101012.84;;;13.40;89.42
48606;BME280;8482;54.396;18.590;2022-10-24T10:44:44;101017.75;;;13.45;89.04
48606;BME280;8482;54.396;18.590;2022-10-24T10:50:40;101007.97;;;13.55;88.96
48606;BME280;8482;54.396;18.590;2022-10-24T10:53:50;101002.22;;;13.60;89.05
48606;BME280;8482;54.396;18.590;2022-10-24T11:02:39;100989.50;;;13.73;88.52
48606;BME280;8482;54.396;18.590;2022-10-24T11:09:26;100982.09;;;13.87;88.71
48606;BME280;8482;54.396;18.590;2022-10-24T11:12:11;100976.09;;;13.94;88.27
48606;BME280;8482;54.396;18.590;2022-10-24T11:15:02;100971.75;;;14.03;88.51
48606;BME280;8482;54.396;18.590;2022-10-24T11:18:22;100971.19;;;14.09;88.24
48606;BME280;8482;54.396;18.590;2022-10-24T11:20:56;100961.94;;;14.14;88.04
48606;BME280;8482;54.396;18.590;2022-10-24T11:26:35;100967.56;;;14.30;87.56
48606;BME280;8482;54.396;18.590;2022-10-24T11:31:50;100963.47;;;14.36;86.65
48606;BME280;8482;54.396;18.590;2022-10-24T11:34:50;100969.38;;;14.39;86.61
48606;BME280;8482;54.396;18.590;2022-10-24T11:37:31;100972.59;;;14.43;86.90
48606;BME280;8482;54.396;18.590;2022-10-24T11:40:21;100961.53;;;14.48;86.57
48606;BME280;8482;54.396;18.590;2022-10-24T11:46:15;100961.50;;;14.57;86.25
48606;BME280;8482;54.396;18.590;2022-10-24T11:49:14;100961.63;;;14.66;86.33
48606;BME280;8482;54.396;18.590;2022-10-24T11:51:57;100962.47;;;14.76;86.38
48606;BME280;8482;54.396;18.590;2022-10-24T11:54:33;100949.94;;;14.86;86.38
48606;BME280;8482;54.396;18.590;2022-10-24T11:57:11;100956.53;;;14.92;85.77
48606;BME280;8482;54.396;18.590;2022-10-24T11:59:38;100955.13;;;14.98;85.49
48606;BME280;8482;54.396;18.590;2022-10-24T12:11:19;100946.88;;;15.19;83.85
48606;BME280;8482;54.396;18.590;2022-10-24T12:19:52;100949.00;;;15.25;83.32
48606;BME280;8482;54.396;18.590;2022-10-24T12:22:24;100940.66;;;15.28;83.06
48606;BME280;8482;54.396;18.590;2022-10-24T12:25:18;100936.16;;;15.29;82.86
48606;BME280;8482;54.396;18.590;2022-10-24T12:27:53;100942.50;;;15.28;82.69
48606;BME280;8482;54.396;18.590;2022-10-24T12:30:23;100936.16;;;15.29;82.51
48606;BME280;8482;54.396;18.590;2022-10-24T12:35:53;100922.38;;;15.24;82.28
48606;BME280;8482;54.396;18.590;2022-10-24T12:41:04;100917.91;;;15.24;81.76
48606;BME280;8482;54.396;18.590;2022-10-24T12:59:34;100912.63;;;15.05;81.36
48606;BME280;8482;54.396;18.590;2022-10-24T13:14:21;100930.38;;;14.96;82.25
48606;BME280;8482;54.396;18.590;2022-10-24T13:17:08;100929.53;;;14.95;82.36
48606;BME280;8482;54.396;18.590;2022-10-24T13:19:37;100920.00;;;14.93;82.57
48606;BME280;8482;54.396;18.590;2022-10-24T13:22:04;100927.03;;;14.94;82.78
48606;BME280;8482;54.396;18.590;2022-10-24T13:24:36;100923.50;;;14.93;82.96
48606;BME280;8482;54.396;18.590;2022-10-24T13:37:42;100913.97;;;14.91;83.55
48606;BME280;8482;54.396;18.590;2022-10-24T13:40:32;100912.97;;;14.92;83.30
48606;BME280;8482;54.396;18.590;2022-10-24T13:43:15;100907.75;;;14.90;83.46
48606;BME280;8482;54.396;18.590;2022-10-24T13:45:59;100925.34;;;14.93;83.73
48606;BME280;8482;54.396;18.590;2022-10-24T13:48:32;100924.47;;;14.92;83.80
48606;BME280;8482;54.396;18.590;2022-10-24T13:51:31;100920.13;;;14.91;83.81
48606;BME280;8482;54.396;18.590;2022-10-24T13:54:29;100915.78;;;14.90;84.00
48606;BME280;8482;54.396;18.590;2022-10-24T13:56:56;100922.97;;;14.90;84.51
48606;BME280;8482;54.396;18.590;2022-10-24T13:59:37;100913.25;;;14.89;84.26
48606;BME280;8482;54.396;18.590;2022-10-24T14:02:18;100914.09;;;14.89;84.32
48606;BME280;8482;54.396;18.590;2022-10-24T14:04:48;100911.72;;;14.86;84.33
48606;BME280;8482;54.396;18.590;2022-10-24T14:07:32;100912.44;;;14.88;84.33
48606;BME280;8482;54.396;18.590;2022-10-24T14:10:11;100901.88;;;14.86;84.41
48606;BME280;8482;54.396;18.590;2022-10-24T14:12:40;100910.75;;;14.87;84.53
48606;BME280;8482;54.396;18.590;2022-10-24T14:15:18;100910.75;;;14.87;84.72
48606;BME280;8482;54.396;18.590;2022-10-24T14:18:10;100902.84;;;14.85;84.70
48606;BME280;8482;54.396;18.590;2022-10-24T14:20:40;100905.53;;;14.85;84.74
48606;BME280;8482;54.396;18.590;2022-10-24T14:23:32;100898.50;;;14.84;84.65
48606;BME280;8482;54.396;18.590;2022-10-24T14:28:37;100888.69;;;14.85;84.95
48606;BME280;8482;54.396;18.590;2022-10-24T14:31:27;100893.16;;;14.84;84.86
48606;BME280;8482;54.396;18.590;2022-10-24T14:33:57;100891.47;;;14.83;84.81
48606;BME280;8482;54.396;18.590;2022-10-24T14:36:34;100901.88;;;14.86;84.67
48606;BME280;8482;54.396;18.590;2022-10-24T14:39:02;100903.00;;;14.84;84.87
48606;BME280;8482;54.396;18.590;2022-10-24T14:41:37;100903.84;;;14.84;85.05
48606;BME280;8482;54.396;18.590;2022-10-24T14:44:06;100898.50;;;14.84;84.98
48606;BME280;8482;54.396;18.590;2022-10-24T14:46:39;100897.69;;;14.84;84.85
48606;BME280;8482;54.396;18.590;2022-10-24T14:49:30;100897.81;;;14.82;84.81
48606;BME280;8482;54.396;18.590;2022-10-24T14:54:51;100905.69;;;14.84;85.33
48606;BME280;8482;54.396;18.590;2022-10-24T14:57:20;100883.91;;;14.79;85.39
48606;BME280;8482;54.396;18.590;2022-10-24T14:59:51;100888.81;;;14.83;85.26
48606;BME280;8482;54.396;18.590;2022-10-24T15:02:26;100898.66;;;14.83;85.65
48606;BME280;8482;54.396;18.590;2022-10-24T15:07:46;100880.94;;;14.82;85.78
48606;BME280;8482;54.396;18.590;2022-10-24T15:17:56;100879.25;;;14.81;85.74
48606;BME280;8482;54.396;18.590;2022-10-24T15:20:26;100881.78;;;14.82;85.85
48606;BME280;8482;54.396;18.590;2022-10-24T15:23:00;100883.63;;;14.82;85.96
48606;BME280;8482;54.396;18.590;2022-10-24T15:25:32;100882.78;;;14.81;85.83
48606;BME280;8482;54.396;18.590;2022-10-24T15:28:01;100883.78;;;14.80;86.30
48606;BME280;8482;54.396;18.590;2022-10-24T15:31:26;100871.41;;;14.79;86.35
48606;BME280;8482;54.396;18.590;2022-10-24T15:33:52;100873.94;;;14.81;86.30
48606;BME280;8482;54.396;18.590;2022-10-24T15:36:26;100874.91;;;14.80;86.04
48606;BME280;8482;54.396;18.590;2022-10-24T15:38:56;100872.13;;;14.81;86.27
48606;BME280;8482;54.396;18.590;2022-10-24T15:41:24;100878.44;;;14.80;86.11
48606;BME280;8482;54.396;18.590;2022-10-24T15:43:52;100874.22;;;14.78;86.44
48606;BME280;8482;54.396;18.590;2022-10-24T15:46:18;100871.69;;;14.76;86.34